sensor_id;sensor_type;location;lat;lon;timestamp;pressure;altitude;pressure_sealevel;temperature;humidity
21111;BME280;10713;51.912;4.494;2023-04-09T00:01:53;102613.88;;;7.64;100.00
21111;BME280;10713;51.912;4.494;2023-04-09T00:04:18;102620.00;;;7.62;100.00
21111;BME280;10713;51.912;4.494;2023-04-09T00:06:44;102620.00;;;7.59;100.00
21111;BME280;10713;51.912;4.494;2023-04-09T00:09:09;102623.50;;;7.59;100.00
21111;BME280;10713;51.912;4.494;2023-04-09T00:11:35;102623.50;;;7.56;100.00
21111;BME280;10713;51.912;4.494;2023-04-09T00:14:00;102624.38;;;7.54;100.00
21111;BME280;10713;51.912;4.494;2023-04-09T00:16:26;102626.13;;;7.52;100.00
21111;BME280;10713;51.912;4.494;2023-04-09T00:18:51;102627.84;;;7.47;100.00
21111;BME280;10713;51.912;4.494;2023-04-09T00:21:16;102627.84;;;7.42;100.00
21111;BME280;10713;51.912;4.494;2023-04-09T00:23:42;102630.47;;;7.40;100.00
21111;BME280;10713;51.912;4.494;2023-04-09T00:26:07;102619.97;;;7.39;100.00
21111;BME280;10713;51.912;4.494;2023-04-09T00:28:33;102626.06;;;7.38;100.00
21111;BME280;10713;51.912;4.494;2023-04-09T00:31:00;102625.22;;;7.39;100.00
21111;BME280;10713;51.912;4.494;2023-04-09T00:33:25;102615.59;;;7.39;100.00
21111;BME280;10713;51.912;4.494;2023-04-09T00:35:51;102614.72;;;7.39;100.00
21111;BME280;10713;51.912;4.494;2023-04-09T00:38:16;102613.84;;;7.40;100.00
21111;BME280;10713;51.912;4.494;2023-04-09T00:40:42;102611.22;;;7.40;100.00
21111;BME280;10713;51.912;4.494;2023-04-09T00:43:07;102607.69;;;7.41;100.00
21111;BME280;10713;51.912;4.494;2023-04-09T00:45:32;102610.31;;;7.41;100.00
21111;BME280;10713;51.912;4.494;2023-04-09T00:47:58;102607.69;;;7.41;100.00
21111;BME280;10713;51.912;4.494;2023-04-09T00:50:23;102603.31;;;7.40;100.00
21111;BME280;10713;51.912;4.494;2023-04-09T00:52:49;102603.31;;;7.40;100.00
21111;BME280;10713;51.912;4.494;2023-04-09T00:55:15;102601.59;;;7.42;100.00
21111;BME280;10713;51.912;4.494;2023-04-09T00:57:42;102599.84;;;7.44;100.00
21111;BME280;10713;51.912;4.494;2023-04-09T01:00:07;102601.56;;;7.43;100.00
21111;BME280;10713;51.912;4.494;2023-04-09T01:02:33;102597.22;;;7.44;100.00
21111;BME280;10713;51.912;4.494;2023-04-09T01:04:59;102603.31;;;7.46;100.00
21111;BME280;10713;51.912;4.494;2023-04-09T01:13:06;102597.22;;;7.47;100.00
21111;BME280;10713;51.912;4.494;2023-04-09T01:15:36;102590.19;;;7.46;100.00
21111;BME280;10713;51.912;4.494;2023-04-09T01:18:14;102597.22;;;7.47;100.00
21111;BME280;10713;51.912;4.494;2023-04-09T01:21:04;102597.19;;;7.45;100.00
21111;BME280;10713;51.912;4.494;2023-04-09T01:26:41;102608.59;;;7.49;100.00
21111;BME280;10713;51.912;4.494;2023-04-09T01:29:10;102607.72;;;7.47;100.00
21111;BME280;10713;51.912;4.494;2023-04-09T01:31:37;102605.97;;;7.46;100.00
21111;BME280;10713;51.912;4.494;2023-04-09T01:34:04;102606.81;;;7.47;100.00
21111;BME280;10713;51.912;4.494;2023-04-09T01:36:31;102601.56;;;7.47;100.00
21111;BME280;10713;51.912;4.494;2023-04-09T01:38:59;102605.09;;;7.49;100.00
21111;BME280;10713;51.912;4.494;2023-04-09T01:41:25;102605.09;;;7.49;100.00
21111;BME280;10713;51.912;4.494;2023-04-09T01:43:52;102611.22;;;7.49;100.00
21111;BME280;10713;51.912;4.494;2023-04-09T01:46:18;102605.97;;;7.51;100.00
21111;BME280;10713;51.912;4.494;2023-04-09T01:48:45;102607.72;;;7.52;100.00
21111;BME280;10713;51.912;4.494;2023-04-09T01:51:12;102607.72;;;7.55;100.00
21111;BME280;10713;51.912;4.494;2023-04-09T01:53:41;102606.84;;;7.57;100.00
21111;BME280;10713;51.912;4.494;2023-04-09T01:56:07;102601.63;;;7.56;100.00
21111;BME280;10713;51.912;4.494;2023-04-09T01:58:33;102602.47;;;7.56;100.00
21111;BME280;10713;51.912;4.494;2023-04-09T02:01:15;102601.59;;;7.57;100.00
21111;BME280;10713;51.912;4.494;2023-04-09T02:03:53;102603.38;;;7.58;100.00
21111;BME280;10713;51.912;4.494;2023-04-09T02:09:07;102598.09;;;7.63;100.00
21111;BME280;10713;51.912;4.494;2023-04-09T02:11:36;102599.00;;;7.65;100.00
21111;BME280;10713;51.912;4.494;2023-04-09T02:14:03;102600.72;;;7.66;100.00
21111;BME280;10713;51.912;4.494;2023-04-09T02:16:30;102594.59;;;7.68;100.00
21111;BME280;10713;51.912;4.494;2023-04-09T02:18:56;102585.81;;;7.70;100.00
21111;BME280;10713;51.912;4.494;2023-04-09T02:21:26;102585.84;;;7.71;100.00
21111;BME280;10713;51.912;4.494;2023-04-09T02:23:51;102582.34;;;7.74;100.00
21111;BME280;10713;51.912;4.494;2023-04-09T02:26:17;102587.59;;;7.78;100.00
21111;BME280;10713;51.912;4.494;2023-04-09T02:28:42;102586.72;;;7.85;100.00
21111;BME280;10713;51.912;4.494;2023-04-09T02:31:07;102582.34;;;7.90;100.00
21111;BME280;10713;51.912;4.494;2023-04-09T02:33:33;102577.97;;;7.99;100.00
21111;BME280;10713;51.912;4.494;2023-04-09T02:35:58;102590.22;;;8.06;100.00
21111;BME280;10713;51.912;4.494;2023-04-09T02:38:23;102586.72;;;8.13;100.00
21111;BME280;10713;51.912;4.494;2023-04-09T02:40:49;102580.56;;;8.19;100.00
21111;BME280;10713;51.912;4.494;2023-04-09T02:43:14;102574.41;;;8.23;100.00
21111;BME280;10713;51.912;4.494;2023-04-09T02:45:40;102576.16;;;8.28;100.00
21111;BME280;10713;51.912;4.494;2023-04-09T02:48:05;102575.25;;;8.32;100.00
21111;BME280;10713;51.912;4.494;2023-04-09T02:50:31;102577.00;;;8.35;100.00
21111;BME280;10713;51.912;4.494;2023-04-09T02:52:56;102578.81;;;8.39;100.00
21111;BME280;10713;51.912;4.494;2023-04-09T02:55:21;102571.75;;;8.41;100.00
21111;BME280;10713;51.912;4.494;2023-04-09T02:57:47;102572.63;;;8.43;100.00
21111;BME280;10713;51.912;4.494;2023-04-09T03:00:12;102567.38;;;8.45;100.00
21111;BME280;10713;51.912;4.494;2023-04-09T03:02:38;102567.38;;;8.46;100.00
21111;BME280;10713;51.912;4.494;2023-04-09T03:05:03;102573.50;;;8.48;100.00
21111;BME280;10713;51.912;4.494;2023-04-09T03:07:29;102572.63;;;8.49;100.00
21111;BME280;10713;51.912;4.494;2023-04-09T03:09:54;102577.03;;;8.50;100.00
21111;BME280;10713;51.912;4.494;2023-04-09T03:12:20;102566.47;;;8.52;100.00
21111;BME280;10713;51.912;4.494;2023-04-09T03:14:45;102562.97;;;8.51;100.00
21111;BME280;10713;51.912;4.494;2023-04-09T03:17:10;102560.34;;;8.53;100.00
21111;BME280;10713;51.912;4.494;2023-04-09T03:19:36;102565.59;;;8.54;100.00
21111;BME280;10713;51.912;4.494;2023-04-09T03:22:01;102553.28;;;8.55;100.00
21111;BME280;10713;51.912;4.494;2023-04-09T03:24:27;102553.28;;;8.55;100.00
21111;BME280;10713;51.912;4.494;2023-04-09T03:26:52;102557.69;;;8.56;100.00
21111;BME280;10713;51.912;4.494;2023-04-09T03:29:17;102545.41;;;8.56;100.00
21111;BME280;10713;51.912;4.494;2023-04-09T03:31:43;102547.16;;;8.57;100.00
21111;BME280;10713;51.912;4.494;2023-04-09T03:34:08;102541.00;;;8.57;100.00
21111;BME280;10713;51.912;4.494;2023-04-09T03:36:33;102534.88;;;8.60;100.00
21111;BME280;10713;51.912;4.494;2023-04-09T03:38:59;102537.47;;;8.61;100.00
21111;BME280;10713;51.912;4.494;2023-04-09T03:41:25;102533.97;;;8.64;100.00
21111;BME280;10713;51.912;4.494;2023-04-09T03:43:51;102533.09;;;8.65;100.00
21111;BME280;10713;51.912;4.494;2023-04-09T03:46:17;102531.31;;;8.64;100.00
21111;BME280;10713;51.912;4.494;2023-04-09T03:48:43;102535.75;;;8.62;100.00
21111;BME280;10713;51.912;4.494;2023-04-09T03:51:13;102527.84;;;8.62;100.00
21111;BME280;10713;51.912;4.494;2023-04-09T03:53:39;102530.47;;;8.62;100.00
21111;BME280;10713;51.912;4.494;2023-04-09T03:56:05;102531.34;;;8.62;100.00
21111;BME280;10713;51.912;4.494;2023-04-09T03:58:31;102534.88;;;8.64;100.00
21111;BME280;10713;51.912;4.494;2023-04-09T04:00:56;102533.09;;;8.63;100.00
21111;BME280;10713;51.912;4.494;2023-04-09T04:03:21;102525.22;;;8.62;100.00
21111;BME280;10713;51.912;4.494;2023-04-09T04:05:47;102526.03;;;8.67;100.00
21111;BME280;10713;51.912;4.494;2023-04-09T04:08:12;102523.41;;;8.68;100.00
21111;BME280;10713;51.912;4.494;2023-04-09T04:10:37;102517.25;;;8.69;100.00
21111;BME280;10713;51.912;4.494;2023-04-09T04:13:05;102519.00;;;8.72;100.00
21111;BME280;10713;51.912;4.494;2023-04-09T04:15:30;102512.00;;;8.74;100.00
21111;BME280;10713;51.912;4.494;2023-04-09T04:17:56;102515.47;;;8.77;100.00
21111;BME280;10713;51.912;4.494;2023-04-09T04:20:21;102511.06;;;8.78;100.00
21111;BME280;10713;51.912;4.494;2023-04-09T04:22:47;102513.72;;;8.78;100.00
21111;BME280;10713;51.912;4.494;2023-04-09T04:25:12;102505.84;;;8.76;100.00
21111;BME280;10713;51.912;4.494;2023-04-09T04:27:41;102510.22;;;8.76;100.00
21111;BME280;10713;51.912;4.494;2023-04-09T04:30:06;102511.09;;;8.75;100.00
21111;BME280;10713;51.912;4.494;2023-04-09T04:32:32;102516.38;;;8.76;100.00
21111;BME280;10713;51.912;4.494;2023-04-09T04:34:57;102512.84;;;8.74;100.00
21111;BME280;10713;51.912;4.494;2023-04-09T04:37:23;102513.75;;;8.73;100.00
21111;BME280;10713;51.912;4.494;2023-04-09T04:39:49;102510.25;;;8.71;100.00
21111;BME280;10713;51.912;4.494;2023-04-09T04:42:14;102511.13;;;8.73;100.00
21111;BME280;10713;51.912;4.494;2023-04-09T04:44:40;102508.47;;;8.76;100.00
21111;BME280;10713;51.912;4.494;2023-04-09T04:47:06;102512.81;;;8.82;100.00
21111;BME280;10713;51.912;4.494;2023-04-09T04:49:31;102516.31;;;8.84;100.00
21111;BME280;10713;51.912;4.494;2023-04-09T04:51:56;102522.47;;;8.85;100.00
21111;BME280;10713;51.912;4.494;2023-04-09T04:54:22;102517.19;;;8.85;100.00
21111;BME280;10713;51.912;4.494;2023-04-09T04:56:47;102534.75;;;8.87;100.00
21111;BME280;10713;51.912;4.494;2023-04-09T04:59:12;102523.31;;;8.87;100.00
21111;BME280;10713;51.912;4.494;2023-04-09T05:01:38;102529.47;;;8.86;100.00
21111;BME280;10713;51.912;4.494;2023-04-09T05:04:03;102534.75;;;8.84;100.00
21111;BME280;10713;51.912;4.494;2023-04-09T05:06:29;102532.09;;;8.84;100.00
21111;BME280;10713;51.912;4.494;2023-04-09T05:08:55;102534.75;;;8.84;100.00
21111;BME280;10713;51.912;4.494;2023-04-09T05:11:23;102540.03;;;8.87;100.00
21111;BME280;10713;51.912;4.494;2023-04-09T05:13:48;102539.13;;;8.88;100.00
21111;BME280;10713;51.912;4.494;2023-04-09T05:16:15;102537.34;;;8.92;100.00
21111;BME280;10713;51.912;4.494;2023-04-09T05:18:41;102535.59;;;8.94;100.00
21111;BME280;10713;51.912;4.494;2023-04-09T05:21:07;102529.44;;;8.96;100.00
21111;BME280;10713;51.912;4.494;2023-04-09T05:23:32;102532.06;;;8.96;100.00
21111;BME280;10713;51.912;4.494;2023-04-09T05:25:57;102525.91;;;8.94;100.00
21111;BME280;10713;51.912;4.494;2023-04-09T05:28:23;102531.22;;;8.93;100.00
21111;BME280;10713;51.912;4.494;2023-04-09T05:30:48;102523.28;;;8.96;100.00
21111;BME280;10713;51.912;4.494;2023-04-09T05:33:14;102525.88;;;9.00;100.00
21111;BME280;10713;51.912;4.494;2023-04-09T05:35:40;102528.50;;;9.00;100.00
21111;BME280;10713;51.912;4.494;2023-04-09T05:38:05;102529.41;;;8.99;100.00
21111;BME280;10713;51.912;4.494;2023-04-09T05:40:31;102534.66;;;9.01;100.00
21111;BME280;10713;51.912;4.494;2023-04-09T05:42:56;102536.41;;;9.00;100.00
21111;BME280;10713;51.912;4.494;2023-04-09T05:45:22;102539.03;;;9.03;100.00
21111;BME280;10713;51.912;4.494;2023-04-09T05:47:47;102537.25;;;9.04;100.00
21111;BME280;10713;51.912;4.494;2023-04-09T05:50:12;102542.53;;;9.04;100.00
21111;BME280;10713;51.912;4.494;2023-04-09T05:52:38;102539.94;;;9.02;100.00
21111;BME280;10713;51.912;4.494;2023-04-09T05:55:03;102532.03;;;8.99;100.00
21111;BME280;10713;51.912;4.494;2023-04-09T05:57:30;102539.09;;;8.96;100.00
21111;BME280;10713;51.912;4.494;2023-04-09T05:59:56;102540.81;;;8.95;100.00
21111;BME280;10713;51.912;4.494;2023-04-09T06:02:22;102543.47;;;8.92;100.00
21111;BME280;10713;51.912;4.494;2023-04-09T06:04:48;102543.47;;;8.92;100.00
21111;BME280;10713;51.912;4.494;2023-04-09T06:07:14;102529.47;;;8.90;100.00
21111;BME280;10713;51.912;4.494;2023-04-09T06:09:39;102538.22;;;8.92;100.00
21111;BME280;10713;51.912;4.494;2023-04-09T06:12:05;102528.56;;;8.93;100.00
21111;BME280;10713;51.912;4.494;2023-04-09T06:14:30;102532.94;;;8.92;100.00
21111;BME280;10713;51.912;4.494;2023-04-09T06:16:58;102531.22;;;8.93;100.00
21111;BME280;10713;51.912;4.494;2023-04-09T06:19:23;102539.13;;;8.93;100.00
21111;BME280;10713;51.912;4.494;2023-04-09T06:21:48;102534.72;;;8.93;100.00
21111;BME280;10713;51.912;4.494;2023-04-09T06:24:14;102545.25;;;8.93;100.00
21111;BME280;10713;51.912;4.494;2023-04-09T06:26:39;102539.09;;;8.94;100.00
21111;BME280;10713;51.912;4.494;2023-04-09T06:29:05;102546.09;;;8.95;100.00
21111;BME280;10713;51.912;4.494;2023-04-09T06:31:31;102547.84;;;8.98;100.00
21111;BME280;10713;51.912;4.494;2023-04-09T06:33:56;102550.47;;;8.99;100.00
21111;BME280;10713;51.912;4.494;2023-04-09T06:36:21;102554.88;;;8.99;100.00
21111;BME280;10713;51.912;4.494;2023-04-09T06:38:47;102551.34;;;9.01;100.00
21111;BME280;10713;51.912;4.494;2023-04-09T06:41:12;102558.38;;;9.02;100.00
21111;BME280;10713;51.912;4.494;2023-04-09T06:43:39;102553.06;;;9.04;100.00
21111;BME280;10713;51.912;4.494;2023-04-09T06:46:05;102557.47;;;9.05;100.00
21111;BME280;10713;51.912;4.494;2023-04-09T06:48:30;102558.34;;;9.07;100.00
21111;BME280;10713;51.912;4.494;2023-04-09T06:50:56;102556.59;;;9.08;100.00
21111;BME280;10713;51.912;4.494;2023-04-09T06:53:21;102552.19;;;9.07;100.00
21111;BME280;10713;51.912;4.494;2023-04-09T06:55:46;102553.06;;;9.09;100.00
21111;BME280;10713;51.912;4.494;2023-04-09T06:58:12;102553.06;;;9.10;100.00
21111;BME280;10713;51.912;4.494;2023-04-09T07:00:37;102552.16;;;9.10;100.00
21111;BME280;10713;51.912;4.494;2023-04-09T07:03:03;102544.25;;;9.11;100.00
21111;BME280;10713;51.912;4.494;2023-04-09T07:05:29;102549.50;;;9.16;100.00
21111;BME280;10713;51.912;4.494;2023-04-09T07:07:55;102550.34;;;9.18;100.00
21111;BME280;10713;51.912;4.494;2023-04-09T07:10:20;102550.34;;;9.18;100.00
21111;BME280;10713;51.912;4.494;2023-04-09T07:12:46;102558.28;;;9.16;100.00
21111;BME280;10713;51.912;4.494;2023-04-09T07:15:11;102549.50;;;9.14;100.00
21111;BME280;10713;51.912;4.494;2023-04-09T07:17:37;102547.75;;;9.16;100.00
21111;BME280;10713;51.912;4.494;2023-04-09T07:20:03;102550.38;;;9.15;100.00
21111;BME280;10713;51.912;4.494;2023-04-09T07:22:28;102553.88;;;9.15;100.00
21111;BME280;10713;51.912;4.494;2023-04-09T07:24:55;102555.66;;;9.15;100.00
21111;BME280;10713;51.912;4.494;2023-04-09T07:27:24;102546.00;;;9.14;100.00
21111;BME280;10713;51.912;4.494;2023-04-09T07:32:16;102549.50;;;9.13;100.00
21111;BME280;10713;51.912;4.494;2023-04-09T07:34:43;102549.50;;;9.16;100.00
21111;BME280;10713;51.912;4.494;2023-04-09T07:37:09;102546.88;;;9.16;100.00
21111;BME280;10713;51.912;4.494;2023-04-09T07:39:35;102550.34;;;9.18;100.00
21111;BME280;10713;51.912;4.494;2023-04-09T07:42:04;102548.59;;;9.20;100.00
21111;BME280;10713;51.912;4.494;2023-04-09T07:44:36;102548.59;;;9.21;100.00
21111;BME280;10713;51.912;4.494;2023-04-09T07:47:05;102545.97;;;9.21;100.00
21111;BME280;10713;51.912;4.494;2023-04-09T07:49:31;102544.19;;;9.22;100.00
21111;BME280;10713;51.912;4.494;2023-04-09T07:51:57;102544.19;;;9.22;100.00
21111;BME280;10713;51.912;4.494;2023-04-09T07:54:22;102548.59;;;9.21;100.00
21111;BME280;10713;51.912;4.494;2023-04-09T07:56:48;102553.88;;;9.20;100.00
21111;BME280;10713;51.912;4.494;2023-04-09T07:59:13;102545.97;;;9.17;100.00
21111;BME280;10713;51.912;4.494;2023-04-09T08:01:42;102542.47;;;9.16;100.00
21111;BME280;10713;51.912;4.494;2023-04-09T08:04:08;102540.72;;;9.15;100.00
21111;BME280;10713;51.912;4.494;2023-04-09T08:06:34;102535.44;;;9.15;100.00
21111;BME280;10713;51.912;4.494;2023-04-09T08:09:00;102549.50;;;9.16;100.00
21111;BME280;10713;51.912;4.494;2023-04-09T08:11:25;102554.78;;;9.16;100.00
21111;BME280;10713;51.912;4.494;2023-04-09T08:13:51;102549.50;;;9.16;100.00
21111;BME280;10713;51.912;4.494;2023-04-09T08:16:17;102548.63;;;9.17;100.00
21111;BME280;10713;51.912;4.494;2023-04-09T08:18:42;102553.00;;;9.18;100.00
21111;BME280;10713;51.912;4.494;2023-04-09T08:21:08;102546.84;;;9.22;100.00
21111;BME280;10713;51.912;4.494;2023-04-09T08:23:33;102538.94;;;9.20;100.00
21111;BME280;10713;51.912;4.494;2023-04-09T08:25:58;102540.66;;;9.23;100.00
21111;BME280;10713;51.912;4.494;2023-04-09T08:28:24;102550.31;;;9.24;100.00
21111;BME280;10713;51.912;4.494;2023-04-09T08:30:49;102553.88;;;9.21;100.00
21111;BME280;10713;51.912;4.494;2023-04-09T08:33:15;102557.38;;;9.20;100.00
21111;BME280;10713;51.912;4.494;2023-04-09T08:35:41;102556.50;;;9.20;100.00
21111;BME280;10713;51.912;4.494;2023-04-09T08:38:06;102561.78;;;9.21;100.00
21111;BME280;10713;51.912;4.494;2023-04-09T08:40:35;102563.50;;;9.24;100.00
21111;BME280;10713;51.912;4.494;2023-04-09T08:43:03;102563.50;;;9.24;100.00
21111;BME280;10713;51.912;4.494;2023-04-09T08:45:29;102560.88;;;9.22;100.00
21111;BME280;10713;51.912;4.494;2023-04-09T08:47:55;102558.25;;;9.22;100.00
21111;BME280;10713;51.912;4.494;2023-04-09T08:50:27;102559.13;;;9.20;100.00
21111;BME280;10713;51.912;4.494;2023-04-09T08:52:53;102564.41;;;9.18;100.00
21111;BME280;10713;51.912;4.494;2023-04-09T08:55:20;102557.38;;;9.20;100.00
21111;BME280;10713;51.912;4.494;2023-04-09T08:57:46;102555.59;;;9.24;100.00
21111;BME280;10713;51.912;4.494;2023-04-09T09:00:11;102559.97;;;9.27;100.00
21111;BME280;10713;51.912;4.494;2023-04-09T09:02:37;102552.03;;;9.31;100.00
21111;BME280;10713;51.912;4.494;2023-04-09T09:05:03;102550.28;;;9.33;100.00
21111;BME280;10713;51.912;4.494;2023-04-09T09:07:29;102546.72;;;9.37;100.00
21111;BME280;10713;51.912;4.494;2023-04-09T09:09:55;102559.88;;;9.40;100.00
21111;BME280;10713;51.912;4.494;2023-04-09T09:12:39;102551.09;;;9.40;100.00
21111;BME280;10713;51.912;4.494;2023-04-09T09:15:24;102558.09;;;9.41;100.00
21111;BME280;10713;51.912;4.494;2023-04-09T09:17:53;102555.44;;;9.44;100.00
21111;BME280;10713;51.912;4.494;2023-04-09T09:20:20;102548.41;;;9.47;100.00
21111;BME280;10713;51.912;4.494;2023-04-09T09:22:54;102558.03;;;9.53;100.00
21111;BME280;10713;51.912;4.494;2023-04-09T09:25:20;102543.06;;;9.55;100.00
21111;BME280;10713;51.912;4.494;2023-04-09T09:27:49;102550.09;;;9.59;100.00
21111;BME280;10713;51.912;4.494;2023-04-09T09:30:25;102545.69;;;9.58;100.00
21111;BME280;10713;51.912;4.494;2023-04-09T09:33:06;102527.25;;;9.57;100.00
21111;BME280;10713;51.912;4.494;2023-04-09T09:35:51;102540.44;;;9.57;100.00
21111;BME280;10713;51.912;4.494;2023-04-09T09:38:18;102544.78;;;9.61;100.00
21111;BME280;10713;51.912;4.494;2023-04-09T09:40:44;102528.97;;;9.61;100.00
21111;BME280;10713;51.912;4.494;2023-04-09T09:43:11;102533.31;;;9.68;100.00
21111;BME280;10713;51.912;4.494;2023-04-09T09:45:37;102526.22;;;9.76;100.00
21111;BME280;10713;51.912;4.494;2023-04-09T09:48:04;102522.63;;;9.85;100.00
21111;BME280;10713;51.912;4.494;2023-04-09T09:50:30;102521.63;;;9.95;100.00
21111;BME280;10713;51.912;4.494;2023-04-09T09:53:01;102518.00;;;10.05;100.00
21111;BME280;10713;51.912;4.494;2023-04-09T09:55:30;102517.03;;;10.12;100.00
21111;BME280;10713;51.912;4.494;2023-04-09T09:57:57;102518.69;;;10.21;100.00
21111;BME280;10713;51.912;4.494;2023-04-09T10:00:26;102515.16;;;10.27;100.00
21111;BME280;10713;51.912;4.494;2023-04-09T10:02:56;102508.97;;;10.29;100.00
21111;BME280;10713;51.912;4.494;2023-04-09T10:05:22;102501.88;;;10.33;100.00
21111;BME280;10713;51.912;4.494;2023-04-09T10:07:53;102502.72;;;10.38;100.00
21111;BME280;10713;51.912;4.494;2023-04-09T10:10:19;102501.69;;;10.50;100.00
21111;BME280;10713;51.912;4.494;2023-04-09T10:12:45;102494.53;;;10.58;100.00
21111;BME280;10713;51.912;4.494;2023-04-09T10:15:11;102498.72;;;10.76;100.00
21111;BME280;10713;51.912;4.494;2023-04-09T10:17:37;102489.66;;;10.94;100.00
21111;BME280;10713;51.912;4.494;2023-04-09T10:20:15;102483.16;;;11.15;100.00
21111;BME280;10713;51.912;4.494;2023-04-09T10:22:46;102480.19;;;11.36;100.00
21111;BME280;10713;51.912;4.494;2023-04-09T10:25:13;102472.91;;;11.50;100.00
21111;BME280;10713;51.912;4.494;2023-04-09T10:27:38;102464.75;;;11.61;100.00
21111;BME280;10713;51.912;4.494;2023-04-09T10:30:04;102460.88;;;11.81;100.00
21111;BME280;10713;51.912;4.494;2023-04-09T10:32:34;102460.59;;;11.99;100.00
21111;BME280;10713;51.912;4.494;2023-04-09T10:35:02;102446.84;;;12.25;100.00
21111;BME280;10713;51.912;4.494;2023-04-09T10:37:27;102448.41;;;12.34;100.00
21111;BME280;10713;51.912;4.494;2023-04-09T10:39:54;102444.78;;;12.38;100.00
21111;BME280;10713;51.912;4.494;2023-04-09T10:42:28;102437.34;;;12.55;100.00
21111;BME280;10713;51.912;4.494;2023-04-09T10:47:32;102424.97;;;12.93;100.00
21111;BME280;10713;51.912;4.494;2023-04-09T10:50:13;102427.59;;;12.95;100.00
21111;BME280;10713;51.912;4.494;2023-04-09T10:52:39;102434.16;;;13.16;100.00
21111;BME280;10713;51.912;4.494;2023-04-09T10:55:06;102427.28;;;13.44;100.00
21111;BME280;10713;51.912;4.494;2023-04-09T10:57:32;102418.19;;;13.55;100.00
21111;BME280;10713;51.912;4.494;2023-04-09T10:59:58;102409.94;;;13.65;100.00
21111;BME280;10713;51.912;4.494;2023-04-09T11:07:40;102398.78;;;14.15;100.00
21111;BME280;10713;51.912;4.494;2023-04-09T11:10:08;102386.25;;;14.20;100.00
21111;BME280;10713;51.912;4.494;2023-04-09T11:12:33;102375.81;;;14.42;100.00
21111;BME280;10713;51.912;4.494;2023-04-09T11:14:59;102381.88;;;14.47;100.00
21111;BME280;10713;51.912;4.494;2023-04-09T11:17:24;102383.66;;;14.47;100.00
21111;BME280;10713;51.912;4.494;2023-04-09T11:19:50;102375.47;;;14.82;100.00
21111;BME280;10713;51.912;4.494;2023-04-09T11:22:15;102376.84;;;15.21;100.00
21111;BME280;10713;51.912;4.494;2023-04-09T11:24:41;102371.78;;;15.13;100.00
21111;BME280;10713;51.912;4.494;2023-04-09T11:27:07;102365.25;;;14.97;100.00
21111;BME280;10713;51.912;4.494;2023-04-09T11:29:36;102358.63;;;14.82;100.00
21111;BME280;10713;51.912;4.494;2023-04-09T11:32:02;102357.22;;;14.98;100.00
21111;BME280;10713;51.912;4.494;2023-04-09T11:34:29;102355.31;;;15.28;100.00
21111;BME280;10713;51.912;4.494;2023-04-09T11:36:55;102357.16;;;15.26;100.00
21111;BME280;10713;51.912;4.494;2023-04-09T11:39:21;102352.88;;;15.22;100.00
21111;BME280;10713;51.912;4.494;2023-04-09T11:41:46;102356.59;;;15.17;100.00
21111;BME280;10713;51.912;4.494;2023-04-09T11:44:12;102363.59;;;15.19;100.00
21111;BME280;10713;51.912;4.494;2023-04-09T11:46:38;102352.25;;;15.14;100.00
21111;BME280;10713;51.912;4.494;2023-04-09T11:49:03;102348.56;;;15.18;100.00
21111;BME280;10713;51.912;4.494;2023-04-09T11:51:30;102347.63;;;15.19;100.00
21111;BME280;10713;51.912;4.494;2023-04-09T11:54:06;102344.53;;;15.06;100.00
21111;BME280;10713;51.912;4.494;2023-04-09T11:56:32;102337.75;;;14.98;100.00
21111;BME280;10713;51.912;4.494;2023-04-09T11:59:00;102337.41;;;15.07;100.00
21111;BME280;10713;51.912;4.494;2023-04-09T12:01:29;102324.28;;;14.76;100.00
21111;BME280;10713;51.912;4.494;2023-04-09T12:03:56;102328.22;;;14.64;100.00
21111;BME280;10713;51.912;4.494;2023-04-09T12:06:22;102331.22;;;14.53;100.00
21111;BME280;10713;51.912;4.494;2023-04-09T12:08:56;102337.53;;;14.49;100.00
21111;BME280;10713;51.912;4.494;2023-04-09T12:11:29;102341.50;;;14.64;100.00
21111;BME280;10713;51.912;4.494;2023-04-09T12:14:02;102334.81;;;14.79;100.00
21111;BME280;10713;51.912;4.494;2023-04-09T12:16:34;102325.78;;;14.84;100.00
21111;BME280;10713;51.912;4.494;2023-04-09T12:19:06;102326.19;;;14.72;100.00
21111;BME280;10713;51.912;4.494;2023-04-09T12:22:03;102311.56;;;14.59;100.00
21111;BME280;10713;51.912;4.494;2023-04-09T12:24:29;102312.38;;;14.61;100.00
21111;BME280;10713;51.912;4.494;2023-04-09T12:26:54;102328.81;;;14.74;100.00
21111;BME280;10713;51.912;4.494;2023-04-09T12:29:21;102320.63;;;14.80;100.00
21111;BME280;10713;51.912;4.494;2023-04-09T12:31:46;102330.59;;;15.00;100.00
21111;BME280;10713;51.912;4.494;2023-04-09T12:34:12;102326.69;;;15.35;100.00
21111;BME280;10713;51.912;4.494;2023-04-09T12:36:39;102325.19;;;15.76;100.00
21111;BME280;10713;51.912;4.494;2023-04-09T12:39:06;102321.19;;;16.12;100.00
21111;BME280;10713;51.912;4.494;2023-04-09T12:41:31;102322.88;;;16.36;100.00
21111;BME280;10713;51.912;4.494;2023-04-09T12:43:56;102314.88;;;16.14;100.00
21111;BME280;10713;51.912;4.494;2023-04-09T12:46:22;102321.91;;;15.93;100.00
21111;BME280;10713;51.912;4.494;2023-04-09T12:48:47;102317.84;;;16.07;100.00
21111;BME280;10713;51.912;4.494;2023-04-09T12:51:13;102316.13;;;16.28;100.00
21111;BME280;10713;51.912;4.494;2023-04-09T12:53:39;102318.19;;;16.43;100.00
21111;BME280;10713;51.912;4.494;2023-04-09T12:56:05;102313.13;;;16.37;100.00
21111;BME280;10713;51.912;4.494;2023-04-09T12:58:31;102325.88;;;16.05;100.00
21111;BME280;10713;51.912;4.494;2023-04-09T13:00:56;102322.66;;;15.73;100.00
21111;BME280;10713;51.912;4.494;2023-04-09T13:03:23;102313.72;;;15.51;100.00
21111;BME280;10713;51.912;4.494;2023-04-09T13:05:49;102311.59;;;15.36;100.00
21111;BME280;10713;51.912;4.494;2023-04-09T13:08:15;102298.97;;;15.17;100.00